Berezino, Belarus

3:13 PM MSK on March 05, 2015 (GMT +0300)
Minsk | Change Station
CLOSE
Current Station
Airport
Location: Minsk,
Elevation: 748 ft
Nearby Weather Stations

Elev 748 ft 53.86 °N, 27.54 °E | Updated 13 minutes ago

Light Snow
Light Snow
34 °F
Feels Like 26 °F
N
9
Wind Variable Wind from WNW

Today
High -- | Low -- °F
--% Chance of Precip.
Yesterday
High -- | Low -- °F
Precip. -- in
7:44 AM 6:48 PM
Full, 100% visible
Pressure 30.15 in
Visibility 3.1 miles
Clouds Mostly Cloudy 800 ft
Overcast 10000 ft
Windchill 26 °F
Dew Point 30 °F
Humidity 87%
Rainfall 0.00 in
Snow Depth Not available.
UV 1 out of 12
Pollen Not available.
Air Quality Not available.
Flu Activity Not available.
METAR UMMM 051200Z 29004MPS 5000 -SN BKN008 OVC100 01/M01 Q1021 R30/290050 TEMPO 2500 RMK QFE746

More Conditions Fewer Conditions

Pressure 30.15 in
Visibility 3.1 miles
Clouds Mostly Cloudy 800 ft
Overcast 10000 ft
Windchill 26 °F
Dew Point 30 °F
Humidity 87%
Rainfall 0.00 in
Snow Depth Not available.
UV 1 out of 12
Pollen Not available.
Air Quality Not available.
Flu Activity Not available.
METAR UMMM 051200Z 29004MPS 5000 -SN BKN008 OVC100 01/M01 Q1021 R30/290050 TEMPO 2500 RMK QFE746

More Conditions Fewer Conditions

10-Day Weather Forecast

Almanac

Astronomy

Mar. 05, 2015 Rise Set
Actual Time
Civil Twilight
Nautical Twilight
Astronomical Twilight
Moon
Length of Visible Light
Length of Day
Tomorrow will be .
, % of the Moon is Illuminated

Today's Extremes

Country Highs Country Lows

Community

WunderPhotos

Upload Photos

1,802,715 photos uploaded!

WunderBlogs® & News

Nearby

Air Quality

  Air Quality AQ Index Pollutant
Not available.

Snow Depth

Station Depth Elevation

Earthquake Activity

City Distance Mag. Time & Date
Minimum magnitude displayed is 2.5.

Coastal Water Temperatures

Place Temperature

Nearby Weather Stations